createdAt,value
2022-09-23T00:02:02.270Z,10.74
2022-09-23T00:04:31.416Z,10.72
2022-09-23T00:07:02.336Z,10.56
2022-09-23T00:09:31.534Z,10.82
2022-09-23T00:12:03.724Z,10.60
2022-09-23T00:14:35.368Z,10.59
2022-09-23T00:17:05.747Z,10.51
2022-09-23T00:19:35.459Z,10.38
2022-09-23T00:22:04.510Z,10.62
2022-09-23T00:24:33.973Z,10.60
2022-09-23T00:27:02.358Z,10.44
2022-09-23T00:29:31.923Z,10.29
2022-09-23T00:32:02.272Z,10.40
2022-09-23T00:34:33.287Z,10.61
2022-09-23T00:37:01.343Z,10.60
2022-09-23T00:39:31.012Z,10.36
2022-09-23T00:41:59.302Z,10.20
2022-09-23T00:44:49.252Z,10.03
2022-09-23T00:47:23.400Z,10.03
2022-09-23T00:49:57.226Z,10.04
2022-09-23T00:52:26.233Z,10.15
2022-09-23T00:54:56.080Z,10.07
2022-09-23T00:57:25.098Z,10.03
2022-09-23T00:59:53.223Z,9.78
2022-09-23T01:02:22.420Z,9.90
2022-09-23T01:04:51.766Z,9.84
2022-09-23T01:07:21.953Z,10.18
2022-09-23T01:09:50.381Z,9.91
2022-09-23T01:12:31.746Z,9.78
2022-09-23T01:15:07.409Z,9.65
2022-09-23T01:17:40.904Z,9.74
2022-09-23T01:20:50.649Z,9.91
2022-09-23T01:23:39.111Z,9.81
2022-09-23T01:26:22.405Z,9.70
2022-09-23T01:29:08.662Z,9.72
2022-09-23T01:31:44.430Z,9.88
2022-09-23T01:34:16.857Z,9.74
2022-09-23T01:36:49.534Z,9.70
2022-09-23T01:39:24.672Z,10.02
2022-09-23T01:41:57.269Z,9.67
2022-09-23T01:44:31.847Z,9.84
2022-09-23T01:47:11.004Z,9.64
2022-09-23T01:49:48.988Z,9.83
2022-09-23T01:52:23.789Z,9.73
2022-09-23T01:54:56.319Z,9.83
2022-09-23T01:57:29.065Z,9.67
2022-09-23T02:00:01.869Z,9.60
2022-09-23T02:02:49.997Z,9.51
2022-09-23T02:05:21.777Z,9.53
2022-09-23T02:07:55.084Z,9.53
2022-09-23T02:10:26.808Z,9.46
2022-09-23T02:13:05.505Z,9.58
2022-09-23T02:15:37.365Z,9.54
2022-09-23T02:18:13.032Z,9.48
2022-09-23T02:20:41.455Z,9.32
2022-09-23T02:23:13.929Z,9.25
2022-09-23T02:25:49.118Z,9.44
2022-09-23T02:28:21.330Z,9.46
2022-09-23T02:30:54.396Z,9.51
2022-09-23T02:33:28.189Z,9.43
2022-09-23T02:35:59.307Z,9.47
2022-09-23T02:38:32.443Z,9.49
2022-09-23T02:41:06.127Z,9.48
2022-09-23T02:43:40.126Z,9.51
2022-09-23T02:46:08.833Z,9.46
2022-09-23T02:48:42.449Z,9.32
2022-09-23T02:51:11.550Z,9.27
2022-09-23T02:53:41.291Z,9.22
2022-09-23T02:56:16.279Z,9.15
2022-09-23T02:58:47.035Z,9.23
2022-09-23T03:01:21.995Z,9.34
2022-09-23T03:03:59.904Z,9.13
2022-09-23T03:06:31.875Z,8.97
2022-09-23T03:09:05.759Z,9.21
2022-09-23T03:11:36.394Z,9.09
2022-09-23T03:14:17.596Z,9.10
2022-09-23T03:16:49.156Z,9.12
2022-09-23T03:19:25.519Z,8.97
2022-09-23T03:22:02.190Z,9.23
2022-09-23T03:24:34.712Z,9.34
2022-09-23T03:27:06.688Z,9.31
2022-09-23T03:29:37.481Z,9.11
2022-09-23T03:32:08.264Z,9.16
2022-09-23T03:34:40.070Z,9.16
2022-09-23T03:37:12.308Z,9.26
2022-09-23T03:39:43.270Z,9.16
2022-09-23T03:42:16.980Z,9.08
2022-09-23T03:44:47.350Z,9.03
2022-09-23T03:47:18.650Z,9.00
2022-09-23T03:49:49.766Z,9.19
2022-09-23T03:52:19.569Z,9.29
2022-09-23T03:54:47.953Z,9.14
2022-09-23T03:57:16.515Z,9.25
2022-09-23T03:59:45.974Z,9.25
2022-09-23T04:02:16.657Z,9.42
2022-09-23T04:04:45.007Z,9.48
2022-09-23T04:07:15.304Z,9.53
2022-09-23T04:09:44.811Z,9.63
2022-09-23T04:12:15.130Z,9.60
2022-09-23T04:14:45.063Z,9.55
2022-09-23T04:17:13.907Z,9.58
2022-09-23T04:19:43.146Z,9.55
2022-09-23T04:22:11.615Z,9.55
2022-09-23T04:24:42.448Z,9.73
2022-09-23T04:27:11.461Z,9.68
2022-09-23T04:29:41.072Z,9.64
2022-09-23T04:32:09.545Z,9.58
2022-09-23T04:34:38.444Z,9.39
2022-09-23T04:37:07.866Z,9.23
2022-09-23T04:39:36.605Z,9.37
2022-09-23T04:42:07.366Z,9.43
2022-09-23T04:44:36.747Z,9.34
2022-09-23T04:47:05.804Z,9.53
2022-09-23T04:49:35.152Z,9.45
2022-09-23T04:52:05.463Z,9.40
2022-09-23T04:54:34.602Z,9.30
2022-09-23T04:57:04.282Z,9.42
2022-09-23T04:59:35.012Z,9.31
2022-09-23T05:02:04.715Z,9.35
2022-09-23T05:04:33.722Z,9.33
2022-09-23T05:07:04.437Z,9.41
2022-09-23T05:09:33.757Z,9.37
2022-09-23T05:12:02.946Z,9.45
2022-09-23T05:14:31.485Z,9.58
2022-09-23T05:17:00.945Z,9.34
2022-09-23T05:19:29.551Z,9.42
2022-09-23T05:22:00.411Z,9.48
2022-09-23T05:24:28.754Z,9.37
2022-09-23T05:26:58.091Z,9.40
2022-09-23T05:29:26.562Z,9.40
2022-09-23T05:31:56.032Z,9.50
2022-09-23T05:34:25.894Z,9.47
2022-09-23T05:36:55.593Z,9.44
2022-09-23T05:39:24.648Z,9.38
2022-09-23T05:41:55.881Z,9.41
2022-09-23T05:44:24.653Z,9.52
2022-09-23T05:46:54.100Z,9.58
2022-09-23T05:49:33.231Z,9.61
2022-09-23T05:52:13.165Z,9.63
2022-09-23T05:54:41.631Z,9.71
2022-09-23T05:57:12.006Z,9.77
2022-09-23T05:59:40.732Z,9.72
2022-09-23T06:02:10.407Z,9.82
2022-09-23T06:04:41.637Z,9.88
2022-09-23T06:07:11.210Z,10.02
2022-09-23T06:09:42.342Z,9.91
2022-09-23T06:12:12.083Z,9.91
2022-09-23T06:14:40.784Z,10.01
2022-09-23T06:17:09.986Z,10.05
2022-09-23T06:19:38.638Z,10.01
2022-09-23T06:22:08.245Z,9.89
2022-09-23T06:24:36.625Z,9.97
2022-09-23T06:27:07.652Z,10.13
2022-09-23T06:29:37.037Z,10.19
2022-09-23T06:32:05.889Z,10.28
2022-09-23T06:34:46.015Z,10.30
2022-09-23T06:37:20.415Z,10.33
2022-09-23T06:39:49.177Z,10.46
2022-09-23T06:42:20.059Z,10.40
2022-09-23T06:44:48.299Z,10.47
2022-09-23T06:47:20.279Z,10.63
2022-09-23T06:49:48.539Z,10.65
2022-09-23T06:52:18.635Z,10.53
2022-09-23T06:54:47.416Z,10.61
2022-09-23T06:57:15.943Z,10.75
2022-09-23T06:59:45.961Z,10.78
2022-09-23T07:02:14.294Z,10.85
2022-09-23T07:04:42.558Z,10.97
2022-09-23T07:07:11.589Z,10.96
2022-09-23T07:09:39.621Z,10.95
2022-09-23T07:12:08.279Z,10.62
2022-09-23T07:14:36.427Z,10.90
2022-09-23T07:17:06.284Z,10.95
2022-09-23T07:19:36.303Z,10.94
2022-09-23T07:22:05.482Z,11.16
2022-09-23T07:24:34.328Z,11.18
2022-09-23T07:27:03.028Z,11.04
2022-09-23T07:29:42.156Z,11.20
2022-09-23T07:32:14.434Z,11.00
2022-09-23T07:34:43.194Z,11.04
2022-09-23T07:37:11.536Z,11.08
2022-09-23T07:39:40.272Z,11.18
2022-09-23T07:42:08.533Z,11.42
2022-09-23T07:44:36.825Z,11.31
2022-09-23T07:47:05.161Z,11.30
2022-09-23T07:49:36.652Z,11.54
2022-09-23T07:52:05.117Z,11.60
2022-09-23T07:54:33.347Z,11.46
2022-09-23T07:57:01.542Z,11.66
2022-09-23T07:59:30.006Z,11.65
2022-09-23T08:01:59.620Z,12.06
2022-09-23T08:04:30.071Z,11.93
2022-09-23T08:07:01.682Z,12.00
2022-09-23T08:09:31.842Z,11.86
2022-09-23T08:12:00.222Z,11.99
2022-09-23T08:14:28.591Z,12.04
2022-09-23T08:16:57.804Z,12.24
2022-09-23T08:19:25.911Z,12.37
2022-09-23T08:21:54.544Z,12.31
2022-09-23T08:24:24.671Z,12.53
2022-09-23T08:26:54.131Z,12.44
2022-09-23T08:29:23.730Z,12.62
2022-09-23T08:31:52.450Z,12.92
2022-09-23T08:34:21.892Z,12.90
2022-09-23T08:36:52.355Z,12.90
2022-09-23T08:39:23.226Z,13.00
2022-09-23T08:42:05.107Z,13.08
2022-09-23T08:44:41.066Z,13.17
2022-09-23T08:47:13.612Z,13.26
2022-09-23T08:49:46.276Z,13.45
2022-09-23T08:52:19.344Z,13.53
2022-09-23T08:54:51.929Z,13.52
2022-09-23T08:57:32.908Z,13.52
2022-09-23T09:00:02.723Z,13.73
2022-09-23T09:02:31.547Z,13.92
2022-09-23T09:05:03.397Z,13.94
2022-09-23T09:07:37.949Z,13.91
2022-09-23T09:10:12.997Z,13.78
2022-09-23T09:12:45.011Z,13.83
2022-09-23T09:15:15.320Z,13.87
2022-09-23T09:17:51.616Z,13.98
2022-09-23T09:20:24.365Z,14.21
2022-09-23T09:22:58.062Z,14.12
2022-09-23T09:25:37.981Z,14.32
2022-09-23T09:28:16.436Z,14.26
2022-09-23T09:30:48.547Z,14.54
2022-09-23T09:33:20.097Z,14.72
2022-09-23T09:36:08.947Z,14.74
2022-09-23T09:38:38.050Z,14.83
2022-09-23T09:41:15.532Z,15.00
2022-09-23T09:43:48.584Z,14.94
2022-09-23T09:46:29.429Z,15.01
2022-09-23T09:49:00.277Z,14.91
2022-09-23T09:51:29.703Z,14.96
2022-09-23T09:54:17.449Z,14.96
2022-09-23T09:59:23.052Z,15.22
2022-09-23T10:01:51.503Z,15.24
2022-09-23T10:04:25.333Z,15.30
2022-09-23T10:07:06.567Z,15.39
2022-09-23T10:09:36.840Z,15.57
2022-09-23T10:12:15.026Z,15.46
2022-09-23T10:14:43.347Z,15.51
2022-09-23T10:17:16.740Z,15.64
2022-09-23T10:19:47.145Z,15.75
2022-09-23T10:22:21.964Z,15.86
2022-09-23T10:24:55.147Z,16.02
2022-09-23T10:27:34.610Z,15.64
2022-09-23T10:30:05.736Z,15.78
2022-09-23T10:32:37.354Z,15.58
2022-09-23T10:35:16.117Z,15.56
2022-09-23T10:37:46.731Z,15.66
2022-09-23T10:40:35.320Z,15.87
2022-09-23T10:43:44.381Z,16.07
2022-09-23T10:46:45.176Z,16.05
2022-09-23T10:49:57.957Z,15.90
2022-09-23T10:52:43.703Z,15.95
2022-09-23T10:55:27.108Z,16.22
2022-09-23T10:58:11.894Z,16.24
2022-09-23T11:00:46.966Z,16.25
2022-09-23T11:03:32.310Z,16.32
2022-09-23T11:06:11.350Z,16.56
2022-09-23T11:09:03.375Z,16.38
2022-09-23T11:11:39.474Z,16.48
2022-09-23T11:14:24.691Z,16.47
2022-09-23T11:17:14.919Z,16.57
2022-09-23T11:19:56.636Z,16.60
2022-09-23T11:22:38.046Z,16.86
2022-09-23T11:25:24.349Z,16.78
2022-09-23T11:28:04.304Z,16.62
2022-09-23T11:30:39.121Z,16.84
2022-09-23T11:33:28.346Z,17.00
2022-09-23T11:35:58.857Z,16.57
2022-09-23T11:38:29.491Z,16.39
2022-09-23T11:41:00.842Z,16.78
2022-09-23T11:43:33.528Z,16.89
2022-09-23T11:46:05.188Z,17.13
2022-09-23T11:48:38.170Z,17.28
2022-09-23T11:51:07.978Z,16.83
2022-09-23T11:53:40.447Z,17.20
2022-09-23T11:56:13.111Z,17.48
2022-09-23T11:58:50.008Z,17.58
2022-09-23T12:01:34.761Z,17.85
2022-09-23T12:04:19.200Z,17.76
2022-09-23T12:06:51.177Z,17.91
2022-09-23T12:09:41.014Z,18.36
2022-09-23T12:12:15.703Z,18.43
2022-09-23T12:14:53.891Z,18.23
2022-09-23T12:17:35.108Z,18.60
2022-09-23T12:20:16.482Z,18.39
2022-09-23T12:22:54.010Z,18.28
2022-09-23T12:25:46.604Z,18.24
2022-09-23T12:28:19.412Z,18.56
2022-09-23T12:30:48.840Z,18.88
2022-09-23T12:33:24.842Z,18.88
2022-09-23T12:35:55.546Z,18.74
2022-09-23T12:38:26.473Z,18.30
2022-09-23T12:40:56.162Z,18.36
2022-09-23T12:43:33.082Z,18.49
2022-09-23T12:46:19.609Z,18.49
2022-09-23T12:48:49.391Z,18.37
2022-09-23T12:51:21.068Z,18.23
2022-09-23T12:54:16.864Z,18.32
2022-09-23T12:57:02.409Z,18.37
2022-09-23T12:59:32.661Z,18.44
2022-09-23T13:02:24.222Z,18.17
2022-09-23T13:05:15.966Z,18.42
2022-09-23T13:07:46.868Z,18.19
2022-09-23T13:10:19.219Z,18.27
2022-09-23T13:12:48.007Z,18.27
2022-09-23T13:15:25.930Z,18.36
2022-09-23T13:17:54.023Z,18.35
2022-09-23T13:20:36.585Z,18.37
2022-09-23T13:23:24.476Z,18.36
2022-09-23T13:25:54.136Z,18.23
2022-09-23T13:28:32.572Z,18.13
2022-09-23T13:31:05.329Z,18.12
2022-09-23T13:33:39.890Z,17.98
2022-09-23T13:36:13.559Z,17.88
2022-09-23T13:38:43.120Z,17.98
2022-09-23T13:41:15.003Z,17.79
2022-09-23T13:43:45.340Z,17.95
2022-09-23T13:46:15.227Z,17.86
2022-09-23T13:48:45.699Z,17.77
2022-09-23T13:51:19.534Z,17.83
2022-09-23T13:53:55.521Z,17.84
2022-09-23T13:56:25.287Z,17.54
2022-09-23T13:58:53.431Z,17.36
2022-09-23T14:01:32.406Z,17.41
2022-09-23T14:04:00.919Z,17.32
2022-09-23T14:06:31.268Z,17.30
2022-09-23T14:09:02.458Z,17.55
2022-09-23T14:11:33.223Z,17.74
2022-09-23T14:14:07.941Z,17.69
2022-09-23T14:16:38.408Z,17.67
2022-09-23T14:19:06.805Z,17.65
2022-09-23T14:21:36.078Z,17.57
2022-09-23T14:24:20.084Z,17.60
2022-09-23T14:26:50.367Z,17.53
2022-09-23T14:29:21.517Z,17.70
2022-09-23T14:31:57.754Z,17.59
2022-09-23T14:34:48.298Z,17.50
2022-09-23T14:37:41.202Z,17.53
2022-09-23T14:40:15.517Z,17.45
2022-09-23T14:42:46.466Z,17.44
2022-09-23T14:45:17.669Z,17.52
2022-09-23T14:47:48.667Z,17.69
2022-09-23T14:50:39.782Z,17.73
2022-09-23T14:53:35.958Z,17.70
2022-09-23T14:56:15.001Z,17.76
2022-09-23T14:58:49.613Z,17.52
2022-09-23T15:01:38.669Z,17.55
2022-09-23T15:04:30.559Z,17.71
2022-09-23T15:07:01.183Z,17.60
2022-09-23T15:09:32.239Z,17.57
2022-09-23T15:12:03.596Z,17.41
2022-09-23T15:14:39.090Z,17.62
2022-09-23T15:17:18.245Z,17.81
2022-09-23T15:19:52.584Z,17.82
2022-09-23T15:22:20.950Z,17.81
2022-09-23T15:24:49.037Z,17.86
2022-09-23T15:27:32.900Z,17.94
2022-09-23T15:30:15.553Z,17.95
2022-09-23T15:32:44.421Z,17.94
2022-09-23T15:35:18.865Z,17.95
2022-09-23T15:37:48.068Z,17.85
2022-09-23T15:40:20.892Z,17.72
2022-09-23T15:42:52.756Z,17.84
2022-09-23T15:45:22.594Z,17.85
2022-09-23T15:47:52.359Z,17.64
2022-09-23T15:50:20.839Z,17.58
2022-09-23T15:52:48.932Z,17.36
2022-09-23T15:55:21.510Z,17.27
2022-09-23T15:57:51.364Z,17.17
2022-09-23T16:00:19.722Z,17.26
2022-09-23T16:02:49.282Z,17.27
2022-09-23T16:05:26.074Z,16.92
2022-09-23T16:07:54.256Z,16.73
2022-09-23T16:10:23.536Z,16.63
2022-09-23T16:12:53.806Z,16.50
2022-09-23T16:15:23.870Z,16.41
2022-09-23T16:17:52.353Z,16.28
2022-09-23T16:20:20.839Z,16.19
2022-09-23T16:22:54.679Z,16.11
2022-09-23T16:25:25.497Z,16.00
2022-09-23T16:27:55.738Z,15.97
2022-09-23T16:30:24.395Z,15.95
2022-09-23T16:32:52.770Z,15.89
2022-09-23T16:35:21.656Z,15.87
2022-09-23T16:37:50.078Z,15.84
2022-09-23T16:40:20.790Z,15.72
2022-09-23T16:42:49.659Z,15.63
2022-09-23T16:45:23.043Z,15.59
2022-09-23T16:47:53.140Z,15.53
2022-09-23T16:50:23.065Z,15.43
2022-09-23T16:52:55.226Z,15.43
2022-09-23T16:55:24.805Z,15.36
2022-09-23T16:57:53.978Z,15.29
2022-09-23T17:00:41.069Z,15.33
2022-09-23T17:03:26.468Z,15.21
2022-09-23T17:05:55.495Z,15.23
2022-09-23T17:08:23.588Z,15.23
2022-09-23T17:10:58.410Z,15.18
2022-09-23T17:13:27.139Z,15.08
2022-09-23T17:15:56.994Z,15.06
2022-09-23T17:18:25.301Z,15.03
2022-09-23T17:21:01.114Z,15.06
2022-09-23T17:23:31.504Z,15.04
2022-09-23T17:25:59.941Z,14.93
2022-09-23T17:28:28.314Z,14.91
2022-09-23T17:30:59.092Z,14.91
2022-09-23T17:33:27.947Z,14.85
2022-09-23T17:35:56.815Z,14.87
2022-09-23T17:38:28.817Z,14.81
2022-09-23T17:40:59.209Z,14.76
2022-09-23T17:43:27.716Z,14.81
2022-09-23T17:45:58.912Z,14.64
2022-09-23T17:48:27.148Z,14.73
2022-09-23T17:50:56.440Z,14.73
2022-09-23T17:53:24.703Z,14.60
2022-09-23T17:55:57.094Z,14.49
2022-09-23T17:58:26.623Z,14.61
2022-09-23T18:00:55.467Z,14.65
2022-09-23T18:03:25.291Z,14.51
2022-09-23T18:05:53.754Z,14.48
2022-09-23T18:08:22.455Z,14.42
2022-09-23T18:10:50.537Z,14.29
2022-09-23T18:13:18.615Z,14.31
2022-09-23T18:15:46.666Z,14.11
2022-09-23T18:18:14.751Z,14.31
2022-09-23T18:20:44.215Z,14.28
2022-09-23T18:23:12.328Z,14.26
2022-09-23T18:25:40.438Z,14.25
2022-09-23T18:28:08.755Z,14.08
2022-09-23T18:30:36.882Z,14.18
2022-09-23T18:33:05.210Z,14.09
2022-09-23T18:35:33.322Z,14.01
2022-09-23T18:38:02.832Z,14.07
2022-09-23T18:40:30.891Z,14.03
2022-09-23T18:42:59.121Z,14.08
2022-09-23T18:45:27.186Z,14.05
2022-09-23T18:48:24.224Z,13.96
2022-09-23T18:50:53.149Z,14.00
2022-09-23T18:53:22.561Z,14.11
2022-09-23T18:55:50.644Z,14.02
2022-09-23T18:58:18.758Z,14.02
2022-09-23T19:00:47.992Z,13.95
2022-09-23T19:03:17.619Z,14.01
2022-09-23T19:05:45.738Z,14.05
2022-09-23T19:08:13.844Z,14.10
2022-09-23T19:10:43.582Z,14.02
2022-09-23T19:13:11.650Z,13.77
2022-09-23T19:15:41.102Z,13.78
2022-09-23T19:18:09.569Z,13.77
2022-09-23T19:20:37.773Z,13.71
2022-09-23T19:23:06.035Z,13.61
2022-09-23T19:25:37.039Z,13.78
2022-09-23T19:28:08.457Z,13.62
2022-09-23T19:30:37.248Z,13.61
2022-09-23T19:33:05.752Z,13.59
2022-09-23T19:35:34.389Z,13.50
2022-09-23T19:38:02.660Z,13.65
2022-09-23T19:40:31.019Z,13.56
2022-09-23T19:42:59.258Z,13.53
2022-09-23T19:45:30.196Z,13.58
2022-09-23T19:47:58.392Z,13.36
2022-09-23T19:50:26.665Z,13.60
2022-09-23T19:52:54.782Z,13.50
2022-09-23T19:55:22.858Z,13.57
2022-09-23T19:57:51.061Z,13.55
2022-09-23T20:00:20.337Z,13.32
2022-09-23T20:02:49.855Z,13.39
2022-09-23T20:05:20.234Z,13.50
2022-09-23T20:07:48.839Z,13.50
2022-09-23T20:10:17.361Z,13.48
2022-09-23T20:12:45.965Z,13.41
2022-09-23T20:15:14.183Z,13.38
2022-09-23T20:17:42.272Z,13.34
2022-09-23T20:20:15.786Z,13.33
2022-09-23T20:22:43.931Z,13.39
2022-09-23T20:25:14.256Z,13.12
2022-09-23T20:27:41.347Z,13.02
2022-09-23T20:30:11.975Z,13.04
2022-09-23T20:32:44.477Z,13.26
2022-09-23T20:35:16.408Z,13.02
2022-09-23T20:37:44.712Z,12.96
2022-09-23T20:40:12.876Z,13.08
2022-09-23T20:42:41.101Z,13.01
2022-09-23T20:45:10.037Z,12.75
2022-09-23T20:47:38.166Z,12.83
2022-09-23T20:50:07.090Z,12.82
2022-09-23T20:52:36.979Z,13.02
2022-09-23T20:55:05.854Z,12.74
2022-09-23T20:57:33.919Z,12.72
2022-09-23T21:00:02.958Z,12.72
2022-09-23T21:02:31.124Z,12.79
2022-09-23T21:05:00.621Z,12.74
2022-09-23T21:07:28.826Z,12.78
2022-09-23T21:09:58.911Z,12.64
2022-09-23T21:12:27.067Z,12.79
2022-09-23T21:14:55.140Z,12.72
2022-09-23T21:17:23.327Z,12.75
2022-09-23T21:19:51.483Z,12.67
2022-09-23T21:22:19.576Z,12.66
2022-09-23T21:25:26.858Z,12.78
2022-09-23T21:27:38.863Z,12.60
2022-09-23T21:30:08.228Z,12.59
2022-09-23T21:32:36.582Z,12.58
2022-09-23T21:35:04.951Z,12.56
2022-09-23T21:37:33.074Z,12.51
2022-09-23T21:40:19.214Z,12.51
2022-09-23T21:42:48.677Z,12.44
2022-09-23T21:45:17.085Z,12.40
2022-09-23T21:47:45.250Z,12.36
2022-09-23T21:50:13.425Z,12.42
2022-09-23T21:52:41.501Z,12.48
2022-09-23T21:55:09.762Z,12.27
2022-09-23T21:57:38.559Z,12.46
2022-09-23T22:00:10.071Z,12.34
2022-09-23T22:02:39.918Z,12.41
2022-09-23T22:05:09.003Z,12.40
2022-09-23T22:07:38.140Z,12.31
2022-09-23T22:10:07.391Z,12.33
2022-09-23T22:12:35.510Z,12.36
2022-09-23T22:15:03.974Z,12.23
2022-09-23T22:17:33.504Z,12.11
2022-09-23T22:20:02.193Z,12.11
2022-09-23T22:22:30.466Z,12.15
2022-09-23T22:24:58.668Z,12.20
2022-09-23T22:27:27.381Z,12.09
2022-09-23T22:30:13.265Z,12.10
2022-09-23T22:32:43.558Z,12.13
2022-09-23T22:35:13.773Z,12.24
2022-09-23T22:37:41.812Z,12.02
2022-09-23T22:40:14.427Z,11.99
2022-09-23T22:42:43.219Z,11.94
2022-09-23T22:45:12.617Z,12.08
2022-09-23T22:47:45.504Z,11.89
2022-09-23T22:50:16.052Z,11.92
2022-09-23T22:52:44.367Z,11.96
2022-09-23T22:55:12.749Z,12.02
2022-09-23T22:57:40.930Z,11.81
2022-09-23T23:00:11.769Z,11.58
2022-09-23T23:02:40.382Z,11.56
2022-09-23T23:05:10.399Z,11.74
2022-09-23T23:07:38.467Z,11.77
2022-09-23T23:10:08.930Z,11.75
2022-09-23T23:12:37.045Z,11.77
2022-09-23T23:15:05.573Z,11.63
2022-09-23T23:17:33.706Z,11.45
2022-09-23T23:20:02.169Z,11.48
2022-09-23T23:22:31.677Z,11.60
2022-09-23T23:24:59.994Z,11.58
2022-09-23T23:27:28.356Z,11.63
2022-09-23T23:29:56.439Z,11.53
2022-09-23T23:32:24.710Z,11.74
2022-09-23T23:34:52.879Z,11.58
2022-09-23T23:37:21.251Z,11.60
2022-09-23T23:39:51.480Z,11.62
2022-09-23T23:42:20.210Z,11.44
2022-09-23T23:44:48.339Z,11.40
2022-09-23T23:47:16.355Z,11.47
2022-09-23T23:49:44.439Z,11.45
2022-09-23T23:52:12.630Z,11.43
2022-09-23T23:54:40.772Z,11.33
2022-09-23T23:57:10.235Z,11.38
2022-09-23T23:59:38.558Z,11.49
